Allerton, IL

9:28 AM CST on January 31, 2015 (GMT -0600)
APRSWXNET Newman IL US | Change Station
CLOSE
Current Station
Personal Weather Station
Location: Newman, IL
Elevation: 649 ft
Nearby Weather Stations
Active Advisory: Winter Weather Advisory

Elev 649 ft 39.80 °N, 87.98 °W | Updated 42 minutes ago

Partly Cloudy
Partly Cloudy
30 °F
Feels Like 24 °F
N
6
Wind Variable Wind from SW
Gusts 12.0 mph

Today
High -- | Low -- °F
--% Chance of Precip.
Yesterday
High -- | Low -- °F
Precip. -- in
7:01 AM 5:09 PM
Waxing Gibbous, 90% visible
Pressure 30.34 in
Visibility 10.0 miles
Clouds Clear
Windchill 24 °F
Dew Point 24 °F
Humidity 79%
Rainfall 0.00 in
Snow Depth Not available.
UV 1 out of 12
Pollen .10 out of 12
Air Quality Not available.
Flu Activity Not available.
METAR KCMI 311453Z 21011KT 10SM CLR M01/M04 A3031 RMK AO2 SLP273 T10111039 50001

More Conditions Fewer Conditions

Pressure 30.34 in
Visibility 10.0 miles
Clouds Clear
Windchill 24 °F
Dew Point 24 °F
Humidity 79%
Rainfall 0.00 in
Snow Depth Not available.
UV 1 out of 12
Pollen .10 out of 12
Air Quality Not available.
Flu Activity Not available.
METAR KCMI 311453Z 21011KT 10SM CLR M01/M04 A3031 RMK AO2 SLP273 T10111039 50001

More Conditions Fewer Conditions

10-Day Weather Forecast

Almanac

Astronomy

Jan. 31, 2015 Rise Set
Actual Time
Civil Twilight
Nautical Twilight
Astronomical Twilight
Moon
Length of Visible Light
Length of Day
Tomorrow will be .
, % of the Moon is Illuminated

Today's Extremes

State Highs State Lows

Community

WunderPhotos

Upload Photos

1,792,091 photos uploaded!

WunderBlogs® & News

Nearby

Air Quality

  Air Quality AQ Index Pollutant
Not available.

Snow Depth

Station Depth Elevation

Earthquake Activity

City Distance Mag. Time & Date
Minimum magnitude displayed is 2.5.

Coastal Water Temperatures

Place Temperature

Nearby Weather Stations